Webcam

2017/09/26 03:20 EBBR 260320Z VRB01KT 0150 R25L/0450N R25R/0400N R01/0350D FG NSC 09/09 Q1020 NOSIG

Webcam

--- Refresh now ---